sensor_id;sensor_type;location;lat;lon;timestamp;temperature;humidity
73360;DHT22;63092;43.582;19.528;2023-10-08T00:00:04;9.90;99.90
73360;DHT22;63092;43.582;19.528;2023-10-08T00:02:50;9.90;99.90
73360;DHT22;63092;43.582;19.528;2023-10-08T00:05:16;9.90;99.90
73360;DHT22;63092;43.582;19.528;2023-10-08T00:07:42;9.90;99.90
73360;DHT22;63092;43.582;19.528;2023-10-08T00:10:09;9.90;99.90
73360;DHT22;63092;43.582;19.528;2023-10-08T00:12:35;9.80;99.90
73360;DHT22;63092;43.582;19.528;2023-10-08T00:15:01;9.80;99.90
73360;DHT22;63092;43.582;19.528;2023-10-08T00:17:32;9.80;99.90
73360;DHT22;63092;43.582;19.528;2023-10-08T00:19:58;9.70;99.90
73360;DHT22;63092;43.582;19.528;2023-10-08T00:22:26;9.70;99.90
73360;DHT22;63092;43.582;19.528;2023-10-08T00:24:52;9.60;99.90
73360;DHT22;63092;43.582;19.528;2023-10-08T00:27:23;9.70;99.90
73360;DHT22;63092;43.582;19.528;2023-10-08T00:29:49;9.60;99.90
73360;DHT22;63092;43.582;19.528;2023-10-08T00:32:15;9.60;99.90
73360;DHT22;63092;43.582;19.528;2023-10-08T00:34:43;9.60;99.90
73360;DHT22;63092;43.582;19.528;2023-10-08T00:37:11;9.60;99.90
73360;DHT22;63092;43.582;19.528;2023-10-08T00:39:41;9.60;99.90
73360;DHT22;63092;43.582;19.528;2023-10-08T00:42:07;9.60;99.90
73360;DHT22;63092;43.582;19.528;2023-10-08T00:44:36;9.60;99.90
73360;DHT22;63092;43.582;19.528;2023-10-08T00:47:17;9.60;99.90
73360;DHT22;63092;43.582;19.528;2023-10-08T00:49:45;9.50;99.90
73360;DHT22;63092;43.582;19.528;2023-10-08T00:52:13;9.50;99.90
73360;DHT22;63092;43.582;19.528;2023-10-08T00:54:41;9.50;99.90
73360;DHT22;63092;43.582;19.528;2023-10-08T00:57:27;9.60;99.90
73360;DHT22;63092;43.582;19.528;2023-10-08T00:59:55;9.50;99.90
73360;DHT22;63092;43.582;19.528;2023-10-08T01:02:27;9.50;99.90
73360;DHT22;63092;43.582;19.528;2023-10-08T01:04:55;9.50;99.90
73360;DHT22;63092;43.582;19.528;2023-10-08T01:07:22;9.40;99.90
73360;DHT22;63092;43.582;19.528;2023-10-08T01:09:49;9.40;99.90
73360;DHT22;63092;43.582;19.528;2023-10-08T01:12:26;9.40;99.90
73360;DHT22;63092;43.582;19.528;2023-10-08T01:14:52;9.40;99.90
73360;DHT22;63092;43.582;19.528;2023-10-08T01:17:33;9.30;99.90
73360;DHT22;63092;43.582;19.528;2023-10-08T01:20:11;9.20;99.90
73360;DHT22;63092;43.582;19.528;2023-10-08T01:22:57;9.20;99.90
73360;DHT22;63092;43.582;19.528;2023-10-08T01:25:23;9.20;99.90
73360;DHT22;63092;43.582;19.528;2023-10-08T01:27:58;9.30;99.90
73360;DHT22;63092;43.582;19.528;2023-10-08T01:30:29;9.30;99.90
73360;DHT22;63092;43.582;19.528;2023-10-08T01:33:00;9.30;99.90
73360;DHT22;63092;43.582;19.528;2023-10-08T01:35:28;9.30;99.90
73360;DHT22;63092;43.582;19.528;2023-10-08T01:37:57;9.20;99.90
73360;DHT22;63092;43.582;19.528;2023-10-08T01:40:25;9.20;99.90
73360;DHT22;63092;43.582;19.528;2023-10-08T01:42:51;9.10;99.90
73360;DHT22;63092;43.582;19.528;2023-10-08T01:45:17;9.10;99.90
73360;DHT22;63092;43.582;19.528;2023-10-08T01:47:44;9.10;99.90
73360;DHT22;63092;43.582;19.528;2023-10-08T01:50:10;9.10;99.90
73360;DHT22;63092;43.582;19.528;2023-10-08T01:52:48;9.10;99.90
73360;DHT22;63092;43.582;19.528;2023-10-08T01:55:13;9.10;99.90
73360;DHT22;63092;43.582;19.528;2023-10-08T01:57:49;9.10;99.90
73360;DHT22;63092;43.582;19.528;2023-10-08T02:00:15;9.10;99.90
73360;DHT22;63092;43.582;19.528;2023-10-08T02:02:49;9.10;99.90
73360;DHT22;63092;43.582;19.528;2023-10-08T02:05:16;9.10;99.90
73360;DHT22;63092;43.582;19.528;2023-10-08T02:07:45;9.10;99.90
73360;DHT22;63092;43.582;19.528;2023-10-08T02:10:11;9.10;99.90
73360;DHT22;63092;43.582;19.528;2023-10-08T02:12:39;9.20;99.90
73360;DHT22;63092;43.582;19.528;2023-10-08T02:15:07;9.20;99.90
73360;DHT22;63092;43.582;19.528;2023-10-08T02:17:34;9.20;99.90
73360;DHT22;63092;43.582;19.528;2023-10-08T02:20:00;9.10;99.90
73360;DHT22;63092;43.582;19.528;2023-10-08T02:22:25;9.10;99.90
73360;DHT22;63092;43.582;19.528;2023-10-08T02:24:51;9.10;99.90
73360;DHT22;63092;43.582;19.528;2023-10-08T02:27:19;9.10;99.90
73360;DHT22;63092;43.582;19.528;2023-10-08T02:29:44;9.20;99.90
73360;DHT22;63092;43.582;19.528;2023-10-08T02:32:10;9.20;99.90
73360;DHT22;63092;43.582;19.528;2023-10-08T02:34:36;9.30;99.90
73360;DHT22;63092;43.582;19.528;2023-10-08T02:37:02;9.30;99.90
73360;DHT22;63092;43.582;19.528;2023-10-08T02:39:30;9.40;99.90
73360;DHT22;63092;43.582;19.528;2023-10-08T02:41:57;9.40;99.90
73360;DHT22;63092;43.582;19.528;2023-10-08T02:44:25;9.40;99.90
73360;DHT22;63092;43.582;19.528;2023-10-08T02:46:51;9.50;99.90
73360;DHT22;63092;43.582;19.528;2023-10-08T02:49:19;9.40;99.90
73360;DHT22;63092;43.582;19.528;2023-10-08T02:51:46;9.50;99.90
73360;DHT22;63092;43.582;19.528;2023-10-08T02:54:12;9.50;99.90
73360;DHT22;63092;43.582;19.528;2023-10-08T02:56:52;9.50;99.90
73360;DHT22;63092;43.582;19.528;2023-10-08T02:59:21;9.50;99.90
73360;DHT22;63092;43.582;19.528;2023-10-08T03:01:48;9.50;99.90
73360;DHT22;63092;43.582;19.528;2023-10-08T03:04:23;9.50;99.90
73360;DHT22;63092;43.582;19.528;2023-10-08T03:06:49;9.60;99.90
73360;DHT22;63092;43.582;19.528;2023-10-08T03:09:17;9.50;99.90
73360;DHT22;63092;43.582;19.528;2023-10-08T03:11:50;9.50;99.90
73360;DHT22;63092;43.582;19.528;2023-10-08T03:14:17;9.50;99.90
73360;DHT22;63092;43.582;19.528;2023-10-08T03:16:50;9.50;99.90
73360;DHT22;63092;43.582;19.528;2023-10-08T03:19:18;9.50;99.90
73360;DHT22;63092;43.582;19.528;2023-10-08T03:21:50;9.50;99.90
73360;DHT22;63092;43.582;19.528;2023-10-08T03:24:22;9.50;99.90
73360;DHT22;63092;43.582;19.528;2023-10-08T03:27:01;9.50;99.90
73360;DHT22;63092;43.582;19.528;2023-10-08T03:29:36;9.50;99.90
73360;DHT22;63092;43.582;19.528;2023-10-08T03:32:12;9.50;99.90
73360;DHT22;63092;43.582;19.528;2023-10-08T03:34:45;9.50;99.90
73360;DHT22;63092;43.582;19.528;2023-10-08T03:37:21;9.50;99.90
73360;DHT22;63092;43.582;19.528;2023-10-08T03:39:50;9.50;99.90
73360;DHT22;63092;43.582;19.528;2023-10-08T03:42:23;9.50;99.90
73360;DHT22;63092;43.582;19.528;2023-10-08T03:44:53;9.50;99.90
73360;DHT22;63092;43.582;19.528;2023-10-08T03:47:22;9.50;99.90
73360;DHT22;63092;43.582;19.528;2023-10-08T03:49:52;9.50;99.90
73360;DHT22;63092;43.582;19.528;2023-10-08T03:52:19;9.40;99.90
73360;DHT22;63092;43.582;19.528;2023-10-08T03:54:51;9.50;99.90
73360;DHT22;63092;43.582;19.528;2023-10-08T03:57:35;9.50;99.90
73360;DHT22;63092;43.582;19.528;2023-10-08T04:00:09;9.60;99.90
73360;DHT22;63092;43.582;19.528;2023-10-08T04:02:39;9.60;99.90
73360;DHT22;63092;43.582;19.528;2023-10-08T04:05:06;9.60;99.90
73360;DHT22;63092;43.582;19.528;2023-10-08T04:07:44;9.60;99.90
73360;DHT22;63092;43.582;19.528;2023-10-08T04:10:27;9.60;99.90
73360;DHT22;63092;43.582;19.528;2023-10-08T04:13:03;9.60;99.90
73360;DHT22;63092;43.582;19.528;2023-10-08T04:15:29;9.50;99.90
73360;DHT22;63092;43.582;19.528;2023-10-08T04:17:54;9.50;99.90
73360;DHT22;63092;43.582;19.528;2023-10-08T04:20:22;9.50;99.90
73360;DHT22;63092;43.582;19.528;2023-10-08T04:23:24;9.60;99.90
73360;DHT22;63092;43.582;19.528;2023-10-08T04:25:50;9.70;99.90
73360;DHT22;63092;43.582;19.528;2023-10-08T04:28:20;9.60;99.90
73360;DHT22;63092;43.582;19.528;2023-10-08T04:30:47;9.60;99.90
73360;DHT22;63092;43.582;19.528;2023-10-08T04:33:13;9.70;99.90
73360;DHT22;63092;43.582;19.528;2023-10-08T04:35:44;9.70;99.90
73360;DHT22;63092;43.582;19.528;2023-10-08T04:38:14;9.80;99.90
73360;DHT22;63092;43.582;19.528;2023-10-08T04:40:43;9.70;99.90
73360;DHT22;63092;43.582;19.528;2023-10-08T04:43:18;9.70;99.90
73360;DHT22;63092;43.582;19.528;2023-10-08T04:45:56;9.60;99.90
73360;DHT22;63092;43.582;19.528;2023-10-08T04:48:24;9.70;99.90
73360;DHT22;63092;43.582;19.528;2023-10-08T04:50:51;9.60;99.90
73360;DHT22;63092;43.582;19.528;2023-10-08T04:53:32;9.70;99.90
73360;DHT22;63092;43.582;19.528;2023-10-08T04:56:04;9.70;99.90
73360;DHT22;63092;43.582;19.528;2023-10-08T04:58:39;9.80;99.90
73360;DHT22;63092;43.582;19.528;2023-10-08T05:01:16;9.80;99.90
73360;DHT22;63092;43.582;19.528;2023-10-08T05:04:04;9.80;99.90
73360;DHT22;63092;43.582;19.528;2023-10-08T05:06:31;9.80;99.90
73360;DHT22;63092;43.582;19.528;2023-10-08T05:11:47;9.80;99.90
73360;DHT22;63092;43.582;19.528;2023-10-08T05:14:16;9.80;99.90
73360;DHT22;63092;43.582;19.528;2023-10-08T05:17:06;9.80;99.90
73360;DHT22;63092;43.582;19.528;2023-10-08T05:19:39;9.80;99.90
73360;DHT22;63092;43.582;19.528;2023-10-08T05:22:05;9.90;99.90
73360;DHT22;63092;43.582;19.528;2023-10-08T05:24:45;9.90;99.90
73360;DHT22;63092;43.582;19.528;2023-10-08T05:27:32;9.90;99.90
73360;DHT22;63092;43.582;19.528;2023-10-08T05:30:14;9.80;99.90
73360;DHT22;63092;43.582;19.528;2023-10-08T05:32:56;9.80;99.90
73360;DHT22;63092;43.582;19.528;2023-10-08T05:35:32;9.80;99.90
73360;DHT22;63092;43.582;19.528;2023-10-08T05:38:27;9.80;99.90
73360;DHT22;63092;43.582;19.528;2023-10-08T05:40:59;9.90;99.90
73360;DHT22;63092;43.582;19.528;2023-10-08T05:43:30;9.80;99.90
73360;DHT22;63092;43.582;19.528;2023-10-08T05:48:50;9.90;99.90
73360;DHT22;63092;43.582;19.528;2023-10-08T05:51:42;10.00;99.90
73360;DHT22;63092;43.582;19.528;2023-10-08T05:56:57;10.00;99.90
73360;DHT22;63092;43.582;19.528;2023-10-08T05:59:39;10.10;99.90
73360;DHT22;63092;43.582;19.528;2023-10-08T06:02:23;10.10;99.90
73360;DHT22;63092;43.582;19.528;2023-10-08T06:05:12;10.20;99.90
73360;DHT22;63092;43.582;19.528;2023-10-08T06:07:41;10.30;99.90
73360;DHT22;63092;43.582;19.528;2023-10-08T06:10:33;10.30;99.90
73360;DHT22;63092;43.582;19.528;2023-10-08T06:13:10;10.40;99.90
73360;DHT22;63092;43.582;19.528;2023-10-08T06:15:43;10.40;99.90
73360;DHT22;63092;43.582;19.528;2023-10-08T06:18:25;10.50;99.90
73360;DHT22;63092;43.582;19.528;2023-10-08T06:21:03;10.60;99.90
73360;DHT22;63092;43.582;19.528;2023-10-08T06:23:40;10.70;99.90
73360;DHT22;63092;43.582;19.528;2023-10-08T06:26:07;10.80;99.90
73360;DHT22;63092;43.582;19.528;2023-10-08T06:28:38;10.80;99.90
73360;DHT22;63092;43.582;19.528;2023-10-08T06:31:05;10.90;99.90
73360;DHT22;63092;43.582;19.528;2023-10-08T06:33:41;11.00;99.90
73360;DHT22;63092;43.582;19.528;2023-10-08T06:36:07;11.20;99.90
73360;DHT22;63092;43.582;19.528;2023-10-08T06:38:43;11.30;99.90
73360;DHT22;63092;43.582;19.528;2023-10-08T06:41:12;11.30;99.90
73360;DHT22;63092;43.582;19.528;2023-10-08T06:43:39;11.30;99.90
73360;DHT22;63092;43.582;19.528;2023-10-08T06:46:07;11.20;99.90
73360;DHT22;63092;43.582;19.528;2023-10-08T06:48:33;11.10;99.90
73360;DHT22;63092;43.582;19.528;2023-10-08T06:51:00;11.20;99.90
73360;DHT22;63092;43.582;19.528;2023-10-08T06:53:42;11.20;99.90
73360;DHT22;63092;43.582;19.528;2023-10-08T06:56:11;11.20;99.90
73360;DHT22;63092;43.582;19.528;2023-10-08T06:58:38;11.30;99.90
73360;DHT22;63092;43.582;19.528;2023-10-08T07:01:04;11.40;99.90
73360;DHT22;63092;43.582;19.528;2023-10-08T07:03:31;11.50;99.90
73360;DHT22;63092;43.582;19.528;2023-10-08T07:05:58;11.70;99.90
73360;DHT22;63092;43.582;19.528;2023-10-08T07:08:26;11.70;99.90
73360;DHT22;63092;43.582;19.528;2023-10-08T07:10:53;11.90;99.90
73360;DHT22;63092;43.582;19.528;2023-10-08T07:13:20;11.90;99.90
73360;DHT22;63092;43.582;19.528;2023-10-08T07:15:52;12.00;99.90
73360;DHT22;63092;43.582;19.528;2023-10-08T07:18:18;12.10;99.90
73360;DHT22;63092;43.582;19.528;2023-10-08T07:20:55;12.20;99.90
73360;DHT22;63092;43.582;19.528;2023-10-08T07:23:24;12.20;99.90
73360;DHT22;63092;43.582;19.528;2023-10-08T07:25:56;12.30;99.90
73360;DHT22;63092;43.582;19.528;2023-10-08T07:28:37;12.40;99.90
73360;DHT22;63092;43.582;19.528;2023-10-08T07:31:15;12.50;99.90
73360;DHT22;63092;43.582;19.528;2023-10-08T07:33:46;12.40;99.90
73360;DHT22;63092;43.582;19.528;2023-10-08T07:36:12;12.40;99.90
73360;DHT22;63092;43.582;19.528;2023-10-08T07:38:38;12.50;99.90
73360;DHT22;63092;43.582;19.528;2023-10-08T07:41:11;12.70;99.90
73360;DHT22;63092;43.582;19.528;2023-10-08T07:43:39;12.70;99.90
73360;DHT22;63092;43.582;19.528;2023-10-08T07:46:05;12.50;99.90
73360;DHT22;63092;43.582;19.528;2023-10-08T07:48:31;12.50;99.90
73360;DHT22;63092;43.582;19.528;2023-10-08T07:50:57;12.60;99.90
73360;DHT22;63092;43.582;19.528;2023-10-08T07:53:24;12.70;99.90
73360;DHT22;63092;43.582;19.528;2023-10-08T07:55:51;12.60;99.90
73360;DHT22;63092;43.582;19.528;2023-10-08T07:58:18;12.60;99.90
73360;DHT22;63092;43.582;19.528;2023-10-08T08:00:44;12.60;99.90
73360;DHT22;63092;43.582;19.528;2023-10-08T08:03:20;12.50;99.90
73360;DHT22;63092;43.582;19.528;2023-10-08T08:05:47;12.50;99.90
73360;DHT22;63092;43.582;19.528;2023-10-08T08:08:14;12.50;99.90
73360;DHT22;63092;43.582;19.528;2023-10-08T08:10:44;12.70;99.90
73360;DHT22;63092;43.582;19.528;2023-10-08T08:13:10;12.60;99.90
73360;DHT22;63092;43.582;19.528;2023-10-08T08:15:36;12.70;99.90
73360;DHT22;63092;43.582;19.528;2023-10-08T08:18:07;12.60;99.90
73360;DHT22;63092;43.582;19.528;2023-10-08T08:20:35;12.70;99.90
73360;DHT22;63092;43.582;19.528;2023-10-08T08:23:07;12.70;99.90
73360;DHT22;63092;43.582;19.528;2023-10-08T08:25:39;12.70;99.90
73360;DHT22;63092;43.582;19.528;2023-10-08T08:28:12;12.60;99.90
73360;DHT22;63092;43.582;19.528;2023-10-08T08:30:47;12.60;99.90
73360;DHT22;63092;43.582;19.528;2023-10-08T08:33:13;12.50;99.90
73360;DHT22;63092;43.582;19.528;2023-10-08T08:35:57;12.00;99.90
73360;DHT22;63092;43.582;19.528;2023-10-08T08:38:22;12.80;99.90
73360;DHT22;63092;43.582;19.528;2023-10-08T08:40:49;13.00;99.90
73360;DHT22;63092;43.582;19.528;2023-10-08T08:43:16;13.20;99.90
73360;DHT22;63092;43.582;19.528;2023-10-08T08:45:42;13.30;99.90
73360;DHT22;63092;43.582;19.528;2023-10-08T08:48:09;13.50;99.90
73360;DHT22;63092;43.582;19.528;2023-10-08T08:50:37;14.10;99.90
73360;DHT22;63092;43.582;19.528;2023-10-08T08:53:04;13.80;99.90
73360;DHT22;63092;43.582;19.528;2023-10-08T08:55:31;13.80;99.90
73360;DHT22;63092;43.582;19.528;2023-10-08T09:08:01;14.10;99.90
73360;DHT22;63092;43.582;19.528;2023-10-08T09:10:36;14.10;99.50
73360;DHT22;63092;43.582;19.528;2023-10-08T09:13:19;14.20;98.70
73360;DHT22;63092;43.582;19.528;2023-10-08T09:15:49;14.40;98.50
73360;DHT22;63092;43.582;19.528;2023-10-08T09:18:15;14.70;98.50
73360;DHT22;63092;43.582;19.528;2023-10-08T09:20:41;14.90;98.10
73360;DHT22;63092;43.582;19.528;2023-10-08T09:23:16;15.20;98.00
73360;DHT22;63092;43.582;19.528;2023-10-08T09:25:47;15.30;97.70
73360;DHT22;63092;43.582;19.528;2023-10-08T09:28:19;15.60;97.90
73360;DHT22;63092;43.582;19.528;2023-10-08T09:30:44;15.60;97.70
73360;DHT22;63092;43.582;19.528;2023-10-08T09:35:42;15.80;96.80
73360;DHT22;63092;43.582;19.528;2023-10-08T09:38:11;15.80;96.60
73360;DHT22;63092;43.582;19.528;2023-10-08T09:40:41;15.80;96.90
73360;DHT22;63092;43.582;19.528;2023-10-08T09:43:10;15.90;96.70
73360;DHT22;63092;43.582;19.528;2023-10-08T09:45:38;15.90;96.80
73360;DHT22;63092;43.582;19.528;2023-10-08T09:48:10;15.80;96.50
73360;DHT22;63092;43.582;19.528;2023-10-08T09:50:40;15.70;96.80
73360;DHT22;63092;43.582;19.528;2023-10-08T09:55:33;15.80;96.90
73360;DHT22;63092;43.582;19.528;2023-10-08T09:57:59;16.00;97.00
73360;DHT22;63092;43.582;19.528;2023-10-08T10:00:27;16.10;96.70
73360;DHT22;63092;43.582;19.528;2023-10-08T10:02:58;16.10;96.60
73360;DHT22;63092;43.582;19.528;2023-10-08T10:05:32;16.20;96.60
73360;DHT22;63092;43.582;19.528;2023-10-08T10:08:02;16.30;96.30
73360;DHT22;63092;43.582;19.528;2023-10-08T10:10:32;16.20;96.30
73360;DHT22;63092;43.582;19.528;2023-10-08T10:13:06;16.30;96.30
73360;DHT22;63092;43.582;19.528;2023-10-08T10:15:36;16.40;95.70
73360;DHT22;63092;43.582;19.528;2023-10-08T10:18:13;16.40;95.00
73360;DHT22;63092;43.582;19.528;2023-10-08T10:20:46;16.30;94.90
73360;DHT22;63092;43.582;19.528;2023-10-08T10:23:34;16.40;94.90
73360;DHT22;63092;43.582;19.528;2023-10-08T10:26:02;16.20;94.80
73360;DHT22;63092;43.582;19.528;2023-10-08T10:28:29;16.20;95.10
73360;DHT22;63092;43.582;19.528;2023-10-08T10:30:55;16.20;95.40
73360;DHT22;63092;43.582;19.528;2023-10-08T10:33:34;16.30;95.50
73360;DHT22;63092;43.582;19.528;2023-10-08T10:36:03;16.50;95.50
73360;DHT22;63092;43.582;19.528;2023-10-08T10:40:58;16.70;95.00
73360;DHT22;63092;43.582;19.528;2023-10-08T10:43:27;16.80;95.20
73360;DHT22;63092;43.582;19.528;2023-10-08T10:45:59;16.90;95.30
73360;DHT22;63092;43.582;19.528;2023-10-08T10:48:31;16.90;95.30
73360;DHT22;63092;43.582;19.528;2023-10-08T10:51:00;16.90;95.00
73360;DHT22;63092;43.582;19.528;2023-10-08T10:53:38;16.90;94.90
73360;DHT22;63092;43.582;19.528;2023-10-08T10:56:14;17.00;94.80
73360;DHT22;63092;43.582;19.528;2023-10-08T10:59:02;17.10;94.10
73360;DHT22;63092;43.582;19.528;2023-10-08T11:01:50;17.10;94.30
73360;DHT22;63092;43.582;19.528;2023-10-08T11:04:32;17.00;94.30
73360;DHT22;63092;43.582;19.528;2023-10-08T11:06:59;16.90;94.50
73360;DHT22;63092;43.582;19.528;2023-10-08T11:09:26;16.80;94.50
73360;DHT22;63092;43.582;19.528;2023-10-08T11:12:04;16.80;94.60
73360;DHT22;63092;43.582;19.528;2023-10-08T11:14:40;16.80;94.20
73360;DHT22;63092;43.582;19.528;2023-10-08T11:17:16;16.70;94.30
73360;DHT22;63092;43.582;19.528;2023-10-08T11:19:43;16.70;94.00
73360;DHT22;63092;43.582;19.528;2023-10-08T11:22:15;16.70;94.30
73360;DHT22;63092;43.582;19.528;2023-10-08T11:24:47;16.70;94.20
73360;DHT22;63092;43.582;19.528;2023-10-08T11:27:19;16.90;94.30
73360;DHT22;63092;43.582;19.528;2023-10-08T11:29:55;17.00;93.60
73360;DHT22;63092;43.582;19.528;2023-10-08T11:32:26;17.00;93.10
73360;DHT22;63092;43.582;19.528;2023-10-08T11:34:56;17.10;93.80
73360;DHT22;63092;43.582;19.528;2023-10-08T11:37:32;17.20;94.20
73360;DHT22;63092;43.582;19.528;2023-10-08T11:40:02;17.20;94.20
73360;DHT22;63092;43.582;19.528;2023-10-08T11:45:01;17.60;95.00
73360;DHT22;63092;43.582;19.528;2023-10-08T11:47:53;17.70;94.30
73360;DHT22;63092;43.582;19.528;2023-10-08T11:50:26;17.70;94.50
73360;DHT22;63092;43.582;19.528;2023-10-08T11:53:03;17.80;94.70
73360;DHT22;63092;43.582;19.528;2023-10-08T11:55:32;17.90;94.00
73360;DHT22;63092;43.582;19.528;2023-10-08T11:58:05;17.90;93.90
73360;DHT22;63092;43.582;19.528;2023-10-08T12:00:41;18.00;94.10
73360;DHT22;63092;43.582;19.528;2023-10-08T12:03:13;18.10;93.80
73360;DHT22;63092;43.582;19.528;2023-10-08T12:05:44;18.20;93.60
73360;DHT22;63092;43.582;19.528;2023-10-08T12:08:18;18.20;93.80
73360;DHT22;63092;43.582;19.528;2023-10-08T12:10:46;18.30;93.60
73360;DHT22;63092;43.582;19.528;2023-10-08T12:13:14;18.40;93.20
73360;DHT22;63092;43.582;19.528;2023-10-08T12:15:44;18.60;93.50
73360;DHT22;63092;43.582;19.528;2023-10-08T12:18:10;18.70;92.80
73360;DHT22;63092;43.582;19.528;2023-10-08T12:20:50;18.70;92.80
73360;DHT22;63092;43.582;19.528;2023-10-08T12:23:16;18.90;92.00
73360;DHT22;63092;43.582;19.528;2023-10-08T12:25:52;18.90;91.80
73360;DHT22;63092;43.582;19.528;2023-10-08T12:28:48;19.00;92.00
73360;DHT22;63092;43.582;19.528;2023-10-08T12:31:18;19.10;92.40
73360;DHT22;63092;43.582;19.528;2023-10-08T12:33:51;19.10;92.20
73360;DHT22;63092;43.582;19.528;2023-10-08T12:36:23;19.20;92.10
73360;DHT22;63092;43.582;19.528;2023-10-08T12:38:49;19.20;92.20
73360;DHT22;63092;43.582;19.528;2023-10-08T12:43:44;19.30;92.20
73360;DHT22;63092;43.582;19.528;2023-10-08T12:46:14;19.40;92.40
73360;DHT22;63092;43.582;19.528;2023-10-08T12:48:56;19.40;92.30
73360;DHT22;63092;43.582;19.528;2023-10-08T12:51:23;19.40;92.40
73360;DHT22;63092;43.582;19.528;2023-10-08T12:53:51;19.50;91.90
73360;DHT22;63092;43.582;19.528;2023-10-08T12:56:27;19.50;92.10
73360;DHT22;63092;43.582;19.528;2023-10-08T12:59:03;19.60;91.90
73360;DHT22;63092;43.582;19.528;2023-10-08T13:01:56;19.50;92.30
73360;DHT22;63092;43.582;19.528;2023-10-08T13:04:22;19.50;92.30
73360;DHT22;63092;43.582;19.528;2023-10-08T13:06:58;19.40;92.30
73360;DHT22;63092;43.582;19.528;2023-10-08T13:09:26;19.40;92.70
73360;DHT22;63092;43.582;19.528;2023-10-08T13:11:52;19.50;92.60
73360;DHT22;63092;43.582;19.528;2023-10-08T13:14:18;19.50;92.50
73360;DHT22;63092;43.582;19.528;2023-10-08T13:16:44;19.50;92.40
73360;DHT22;63092;43.582;19.528;2023-10-08T13:19:11;19.50;92.70
73360;DHT22;63092;43.582;19.528;2023-10-08T13:21:38;19.50;93.20
73360;DHT22;63092;43.582;19.528;2023-10-08T13:24:04;19.50;93.40
73360;DHT22;63092;43.582;19.528;2023-10-08T13:26:34;19.50;93.70
73360;DHT22;63092;43.582;19.528;2023-10-08T13:29:03;19.50;93.50
73360;DHT22;63092;43.582;19.528;2023-10-08T13:31:31;19.60;93.60
73360;DHT22;63092;43.582;19.528;2023-10-08T13:34:01;19.60;93.20
73360;DHT22;63092;43.582;19.528;2023-10-08T13:36:29;19.70;93.30
73360;DHT22;63092;43.582;19.528;2023-10-08T13:38:55;19.80;93.20
73360;DHT22;63092;43.582;19.528;2023-10-08T13:41:21;20.00;93.30
73360;DHT22;63092;43.582;19.528;2023-10-08T13:43:48;20.10;93.20
73360;DHT22;63092;43.582;19.528;2023-10-08T13:46:17;20.20;92.60
73360;DHT22;63092;43.582;19.528;2023-10-08T13:48:47;20.20;92.40
73360;DHT22;63092;43.582;19.528;2023-10-08T13:51:17;20.20;92.60
73360;DHT22;63092;43.582;19.528;2023-10-08T13:56:22;20.40;91.90
73360;DHT22;63092;43.582;19.528;2023-10-08T13:58:53;20.40;92.10
73360;DHT22;63092;43.582;19.528;2023-10-08T14:01:33;20.40;91.40
73360;DHT22;63092;43.582;19.528;2023-10-08T14:04:00;20.40;91.90
73360;DHT22;63092;43.582;19.528;2023-10-08T14:06:33;20.30;93.00
73360;DHT22;63092;43.582;19.528;2023-10-08T14:09:00;20.30;92.90
73360;DHT22;63092;43.582;19.528;2023-10-08T14:11:26;20.30;92.40
73360;DHT22;63092;43.582;19.528;2023-10-08T14:13:56;20.30;92.90
73360;DHT22;63092;43.582;19.528;2023-10-08T14:16:24;20.30;93.10
73360;DHT22;63092;43.582;19.528;2023-10-08T14:18:54;20.30;92.60
73360;DHT22;63092;43.582;19.528;2023-10-08T14:21:21;20.30;93.10
73360;DHT22;63092;43.582;19.528;2023-10-08T14:23:50;20.30;93.50
73360;DHT22;63092;43.582;19.528;2023-10-08T14:26:18;20.20;93.20
73360;DHT22;63092;43.582;19.528;2023-10-08T14:28:48;20.20;93.10
73360;DHT22;63092;43.582;19.528;2023-10-08T14:31:24;20.20;93.20
73360;DHT22;63092;43.582;19.528;2023-10-08T14:33:52;20.20;93.20
73360;DHT22;63092;43.582;19.528;2023-10-08T14:36:24;20.30;93.20
73360;DHT22;63092;43.582;19.528;2023-10-08T14:39:25;20.30;93.10
73360;DHT22;63092;43.582;19.528;2023-10-08T14:42:09;20.30;93.20
73360;DHT22;63092;43.582;19.528;2023-10-08T14:44:53;20.30;93.90
73360;DHT22;63092;43.582;19.528;2023-10-08T14:47:19;20.20;93.80
73360;DHT22;63092;43.582;19.528;2023-10-08T14:49:45;20.20;93.80
73360;DHT22;63092;43.582;19.528;2023-10-08T14:52:11;20.20;93.90
73360;DHT22;63092;43.582;19.528;2023-10-08T14:54:37;20.10;94.10
73360;DHT22;63092;43.582;19.528;2023-10-08T14:57:04;20.10;94.20
73360;DHT22;63092;43.582;19.528;2023-10-08T14:59:34;20.10;93.70
73360;DHT22;63092;43.582;19.528;2023-10-08T15:01:59;20.10;93.80
73360;DHT22;63092;43.582;19.528;2023-10-08T15:04:25;20.00;94.10
73360;DHT22;63092;43.582;19.528;2023-10-08T15:06:57;20.00;94.70
73360;DHT22;63092;43.582;19.528;2023-10-08T15:09:23;19.90;96.40
73360;DHT22;63092;43.582;19.528;2023-10-08T15:11:52;19.80;97.20
73360;DHT22;63092;43.582;19.528;2023-10-08T15:14:18;19.70;96.60
73360;DHT22;63092;43.582;19.528;2023-10-08T15:16:45;19.70;96.10
73360;DHT22;63092;43.582;19.528;2023-10-08T15:19:21;19.80;96.00
73360;DHT22;63092;43.582;19.528;2023-10-08T15:21:48;19.70;96.50
73360;DHT22;63092;43.582;19.528;2023-10-08T15:24:19;19.60;97.20
73360;DHT22;63092;43.582;19.528;2023-10-08T15:26:52;19.50;98.50
73360;DHT22;63092;43.582;19.528;2023-10-08T15:29:19;19.40;98.30
73360;DHT22;63092;43.582;19.528;2023-10-08T15:31:46;19.30;98.00
73360;DHT22;63092;43.582;19.528;2023-10-08T15:34:12;19.30;97.50
73360;DHT22;63092;43.582;19.528;2023-10-08T15:36:42;19.30;96.70
73360;DHT22;63092;43.582;19.528;2023-10-08T15:39:08;19.30;96.80
73360;DHT22;63092;43.582;19.528;2023-10-08T15:41:48;19.30;97.90
73360;DHT22;63092;43.582;19.528;2023-10-08T15:44:16;19.20;98.60
73360;DHT22;63092;43.582;19.528;2023-10-08T15:46:43;19.10;98.90
73360;DHT22;63092;43.582;19.528;2023-10-08T15:49:09;19.00;99.10
73360;DHT22;63092;43.582;19.528;2023-10-08T15:51:35;19.00;98.40
73360;DHT22;63092;43.582;19.528;2023-10-08T15:54:02;18.90;98.50
73360;DHT22;63092;43.582;19.528;2023-10-08T15:56:29;18.90;98.40
73360;DHT22;63092;43.582;19.528;2023-10-08T15:58:55;18.80;98.60
73360;DHT22;63092;43.582;19.528;2023-10-08T16:01:22;18.80;98.80
73360;DHT22;63092;43.582;19.528;2023-10-08T16:03:48;18.70;99.00
73360;DHT22;63092;43.582;19.528;2023-10-08T16:06:14;18.70;99.30
73360;DHT22;63092;43.582;19.528;2023-10-08T16:08:40;18.70;99.40
73360;DHT22;63092;43.582;19.528;2023-10-08T16:11:06;18.60;99.50
73360;DHT22;63092;43.582;19.528;2023-10-08T16:13:32;18.60;99.90
73360;DHT22;63092;43.582;19.528;2023-10-08T16:15:59;18.60;99.90
73360;DHT22;63092;43.582;19.528;2023-10-08T16:18:25;18.50;99.90